Eurocargo Valencia — IBGZ — position and weather

sailwx.info

Track history (hours):
 
Tides and Currents Weather Stations Pressure Air Temp Water Temp Dewpoint Dewpoint Depression Visibility Wind Speed Wind Dir Waves Ship Positions

Eurocargo Valencia

Last reported at 2016-Dec-07 02:07 UTC. Time now 2016-Dec-08 02:11 UTC.
Position N 39°07' E 015°18'.

Length 196 m; draft 6.4 m.

Type: Cargo ship. MMSI: 247579000.

Date/timePositionNaut miles runAvg speedWind from/ knotsBaromVisibWave heightAir tempDewpointWater temp
2016-Dec-07 02:07N 39°07' E 015°18'915.9
2016-Dec-07 01:33N 38°58' E 015°23'1616.7
2016-Dec-07 00:33N 38°43' E 015°30'1717.5
2016-Dec-06 23:34N 38°26' E 015°38'1515.0
2016-Dec-06 22:33N 38°11' E 015°37'1818.0
2016-Dec-06 21:34N 37°55' E 015°27'1717.1
2016-Dec-06 20:32N 37°39' E 015°17'12 1.0
2016-Dec-06 08:19N 37°29' E 015°10'1317.7
2016-Dec-06 07:33N 37°40' E 015°18'1817.9
2016-Dec-06 06:33N 37°56' E 015°28'1717.0
2016-Dec-06 05:33N 38°12' E 015°36'1414.1
2016-Dec-06 04:33N 38°26' E 015°37'1817.6
2016-Dec-06 03:33N 38°43' E 015°29'1717.2
2016-Dec-06 02:33N 38°59' E 015°21'11 0.2
2016-Dec-04 05:20N 39°09' E 015°17'1418.6
2016-Dec-04 04:34N 38°56' E 015°24'1818.3
2016-Dec-04 03:33N 38°39' E 015°32'1818.0
2016-Dec-04 02:34N 38°22' E 015°41'1515.3
2016-Dec-04 01:33N 38°07' E 015°36'1818.4
2016-Dec-04 00:33N 37°51' E 015°25'1817.7
2016-Dec-03 23:34N 37°35' E 015°15'4 0.4
2016-Dec-03 12:33N 37°39' E 015°17'1818.1
2016-Dec-03 11:34N 37°55' E 015°27'1717.3
2016-Dec-03 10:34N 38°11' E 015°35'1615.5
2016-Dec-03 09:33N 38°27' E 015°36'1818.2
2016-Dec-03 08:34N 38°44' E 015°28'1918.2
2016-Dec-03 07:32N 39°01' E 015°20'6 0.2
2016-Dec-02 03:33N 39°07' E 015°18'1818.2
2016-Dec-02 02:33N 38°50' E 015°27'1818.1
2016-Dec-02 01:33N 38°34' E 015°35'1817.9
2016-Dec-02 00:34N 38°17' E 015°43'1616.4
2016-Dec-01 23:33N 38°03' E 015°32'1817.9
2016-Dec-01 22:32N 37°46' E 015°22'1818.3
2016-Dec-01 21:33N 37°30' E 015°12'3 0.3
2016-Dec-01 11:05N 37°33' E 015°13'917.5
2016-Dec-01 10:33N 37°41' E 015°18'1817.9
2016-Dec-01 09:33N 37°57' E 015°28'1717.3
2016-Dec-01 08:33N 38°13' E 015°36'1615.7
2016-Dec-01 07:33N 38°29' E 015°36'1818.2
2016-Dec-01 06:33N 38°46' E 015°28'1818.1
2016-Dec-01 05:32N 39°03' E 015°19'8717.5
2016-Dec-01 00:33N 40°26' E 014°44'4 0.2
2016-Nov-30 07:33N 40°30' E 014°44'8115.7
2016-Nov-30 02:25N 39°12' E 015°16'1416.7
2016-Nov-30 01:33N 38°59' E 015°22'1716.9
2016-Nov-30 00:33N 38°43' E 015°30'1717.1
2016-Nov-29 23:33N 38°27' E 015°38'1414.2
2016-Nov-29 22:33N 38°13' E 015°37'1716.6
2016-Nov-29 21:33N 37°58' E 015°29'1717.4
2016-Nov-29 20:33N 37°42' E 015°19'15 1.2
2016-Nov-29 08:09N 37°29' E 015°10'1017.3
2016-Nov-29 07:33N 37°38' E 015°16'1717.3
2016-Nov-29 06:34N 37°54' E 015°26'1817.9
2016-Nov-29 05:34N 38°10' E 015°35'1514.6
2016-Nov-29 04:34N 38°24' E 015°38'1716.9
2016-Nov-29 03:33N 38°40' E 015°30'1817.6
2016-Nov-29 02:33N 38°57' E 015°22'8917.7
2016-Nov-28 21:31N 40°21' E 014°44'15 0.9
2016-Nov-28 05:29N 40°36' E 014°43'1314.2
2016-Nov-28 04:33N 40°23' E 014°44'9014.6
2016-Nov-27 22:22N 38°58' E 015°23'1215.1
2016-Nov-27 21:33N 38°46' E 015°29'1615.5
2016-Nov-27 20:34N 38°32' E 015°37'1615.9
2016-Nov-27 19:33N 38°17' E 015°42'1515.5
2016-Nov-27 18:34N 38°03' E 015°33'1615.5
2016-Nov-27 17:33N 37°49' E 015°24'24 3.3
2016-Nov-27 10:06N 37°29' E 015°06'611.3
2016-Nov-27 09:33N 37°32' E 015°13'1817.6
2016-Nov-27 08:33N 37°48' E 015°22'1817.7
2016-Nov-27 07:33N 38°04' E 015°32'1717.0
2016-Nov-27 06:33N 38°19' E 015°40'1817.7
2016-Nov-27 05:33N 38°36' E 015°32'1817.8
2016-Nov-27 04:32N 38°53' E 015°24'  
Track history (hours):
 
Tides and Currents Weather Stations Pressure Air Temp Water Temp Dewpoint Dewpoint Depression Visibility Wind Speed Wind Dir Waves Ship Positions

Eurocargo Valencia

Last reported at 2016-Dec-07 02:07 UTC. Time now 2016-Dec-08 02:11 UTC.
Position N 39°07' E 015°18'.

Length 196 m; draft 6.4 m.

Type: Cargo ship. MMSI: 247579000.

Date/timePositionNaut miles runAvg speedWind from/ knotsBaromVisibWave heightAir tempDewpointWater temp
2016-Dec-07 02:07N 39°07' E 015°18'915.9
2016-Dec-07 01:33N 38°58' E 015°23'1616.7
2016-Dec-07 00:33N 38°43' E 015°30'1717.5
2016-Dec-06 23:34N 38°26' E 015°38'1515.0
2016-Dec-06 22:33N 38°11' E 015°37'1818.0
2016-Dec-06 21:34N 37°55' E 015°27'1717.1
2016-Dec-06 20:32N 37°39' E 015°17'12 1.0
2016-Dec-06 08:19N 37°29' E 015°10'1317.7
2016-Dec-06 07:33N 37°40' E 015°18'1817.9
2016-Dec-06 06:33N 37°56' E 015°28'1717.0
2016-Dec-06 05:33N 38°12' E 015°36'1414.1
2016-Dec-06 04:33N 38°26' E 015°37'1817.6
2016-Dec-06 03:33N 38°43' E 015°29'1717.2
2016-Dec-06 02:33N 38°59' E 015°21'11 0.2
2016-Dec-04 05:20N 39°09' E 015°17'1418.6
2016-Dec-04 04:34N 38°56' E 015°24'1818.3
2016-Dec-04 03:33N 38°39' E 015°32'1818.0
2016-Dec-04 02:34N 38°22' E 015°41'1515.3
2016-Dec-04 01:33N 38°07' E 015°36'1818.4
2016-Dec-04 00:33N 37°51' E 015°25'1817.7
2016-Dec-03 23:34N 37°35' E 015°15'4 0.4
2016-Dec-03 12:33N 37°39' E 015°17'1818.1
2016-Dec-03 11:34N 37°55' E 015°27'1717.3
2016-Dec-03 10:34N 38°11' E 015°35'1615.5
2016-Dec-03 09:33N 38°27' E 015°36'1818.2
2016-Dec-03 08:34N 38°44' E 015°28'1918.2
2016-Dec-03 07:32N 39°01' E 015°20'6 0.2
2016-Dec-02 03:33N 39°07' E 015°18'1818.2
2016-Dec-02 02:33N 38°50' E 015°27'1818.1
2016-Dec-02 01:33N 38°34' E 015°35'1817.9
2016-Dec-02 00:34N 38°17' E 015°43'1616.4
2016-Dec-01 23:33N 38°03' E 015°32'1817.9
2016-Dec-01 22:32N 37°46' E 015°22'1818.3
2016-Dec-01 21:33N 37°30' E 015°12'3 0.3
2016-Dec-01 11:05N 37°33' E 015°13'917.5
2016-Dec-01 10:33N 37°41' E 015°18'1817.9
2016-Dec-01 09:33N 37°57' E 015°28'1717.3
2016-Dec-01 08:33N 38°13' E 015°36'1615.7
2016-Dec-01 07:33N 38°29' E 015°36'1818.2
2016-Dec-01 06:33N 38°46' E 015°28'1818.1
2016-Dec-01 05:32N 39°03' E 015°19'8717.5
2016-Dec-01 00:33N 40°26' E 014°44'4 0.2
2016-Nov-30 07:33N 40°30' E 014°44'8115.7
2016-Nov-30 02:25N 39°12' E 015°16'1416.7
2016-Nov-30 01:33N 38°59' E 015°22'1716.9
2016-Nov-30 00:33N 38°43' E 015°30'1717.1
2016-Nov-29 23:33N 38°27' E 015°38'1414.2
2016-Nov-29 22:33N 38°13' E 015°37'1716.6
2016-Nov-29 21:33N 37°58' E 015°29'1717.4
2016-Nov-29 20:33N 37°42' E 015°19'15 1.2
2016-Nov-29 08:09N 37°29' E 015°10'1017.3
2016-Nov-29 07:33N 37°38' E 015°16'1717.3
2016-Nov-29 06:34N 37°54' E 015°26'1817.9
2016-Nov-29 05:34N 38°10' E 015°35'1514.6
2016-Nov-29 04:34N 38°24' E 015°38'1716.9
2016-Nov-29 03:33N 38°40' E 015°30'1817.6
2016-Nov-29 02:33N 38°57' E 015°22'8917.7
2016-Nov-28 21:31N 40°21' E 014°44'15 0.9
2016-Nov-28 05:29N 40°36' E 014°43'1314.2
2016-Nov-28 04:33N 40°23' E 014°44'9014.6
2016-Nov-27 22:22N 38°58' E 015°23'1215.1
2016-Nov-27 21:33N 38°46' E 015°29'1615.5
2016-Nov-27 20:34N 38°32' E 015°37'1615.9
2016-Nov-27 19:33N 38°17' E 015°42'1515.5
2016-Nov-27 18:34N 38°03' E 015°33'1615.5
2016-Nov-27 17:33N 37°49' E 015°24'24 3.3
2016-Nov-27 10:06N 37°29' E 015°06'611.3
2016-Nov-27 09:33N 37°32' E 015°13'1817.6
2016-Nov-27 08:33N 37°48' E 015°22'1817.7
2016-Nov-27 07:33N 38°04' E 015°32'1717.0
2016-Nov-27 06:33N 38°19' E 015°40'1817.7
2016-Nov-27 05:33N 38°36' E 015°32'1817.8
2016-Nov-27 04:32N 38°53' E 015°24'  

Dump ship's entire track history